Yuzhno-Sakhalinsk, Russia
Current Conditions -  °F | °C
As of 11:00 AM on Tuesday 23 Dec 2014 (Local Time) from UHSS Reporting Station
Snow Showers Snow Showers  
Wind Chill: 11°   Ceiling: Unl
Heat Index: 18°   Visibility: 4mi
Dew Point: 14°   Wind: 4mph
Humidity: 86%   Direction: 300°WNW
Pressure: 29.47"   Gusts: NA
Location:  46.95°N, 142.73°E
Report Text: UHSS 230000Z 30002MPS 6000 -SHSN SCT032CB M08/M10 Q0998 NOSIGRMK MT OBSC QFE748/0997 01490335
Loading
Personal Weather Stations






























Interactive Weather Map New forecast layout! Learn more

10-Day Weather Forecast

Advertisements
Track Severe Weather on mobile